createdAt,value
2022-10-22T00:04:48.035Z,10.90
2022-10-22T00:09:51.197Z,10.90
2022-10-22T00:14:55.582Z,10.80
2022-10-22T00:19:58.546Z,10.80
2022-10-22T00:25:01.502Z,10.70
2022-10-22T00:30:06.490Z,10.80
2022-10-22T00:35:09.717Z,10.80
2022-10-22T00:40:13.604Z,10.70
2022-10-22T00:45:22.330Z,10.80
2022-10-22T00:50:29.653Z,10.70
2022-10-22T00:55:34.504Z,10.70
2022-10-22T01:00:38.932Z,10.70
2022-10-22T01:05:45.368Z,10.70
2022-10-22T01:10:59.662Z,10.70
2022-10-22T01:16:11.428Z,10.60
2022-10-22T01:21:24.198Z,10.60
2022-10-22T01:26:38.061Z,10.60
2022-10-22T01:31:46.688Z,10.70
2022-10-22T01:36:50.618Z,10.80
2022-10-22T01:41:56.461Z,10.80
2022-10-22T01:47:10.535Z,10.70
2022-10-22T01:52:23.276Z,10.60
2022-10-22T01:57:35.208Z,10.50
2022-10-22T02:02:44.324Z,10.50
2022-10-22T02:07:51.169Z,10.50
2022-10-22T02:12:56.988Z,10.70
2022-10-22T02:18:01.942Z,10.60
2022-10-22T02:23:05.672Z,10.70
2022-10-22T02:28:14.858Z,10.70
2022-10-22T02:33:23.159Z,10.70
2022-10-22T02:38:27.968Z,10.70
2022-10-22T02:43:31.086Z,10.70
2022-10-22T02:48:35.367Z,10.60
2022-10-22T02:53:38.309Z,10.40
2022-10-22T02:58:41.317Z,10.40
2022-10-22T03:03:45.646Z,10.40
2022-10-22T03:08:48.701Z,10.50
2022-10-22T03:13:51.672Z,10.60
2022-10-22T03:18:56.001Z,10.70
2022-10-22T03:24:00.337Z,10.50
2022-10-22T03:29:03.669Z,10.50
2022-10-22T03:34:07.963Z,10.50
2022-10-22T03:39:13.784Z,10.50
2022-10-22T03:44:17.917Z,10.50
2022-10-22T03:49:22.199Z,10.70
2022-10-22T03:54:25.631Z,10.80
2022-10-22T03:59:28.785Z,10.80
2022-10-22T04:04:33.170Z,10.80
2022-10-22T04:09:36.774Z,10.80
2022-10-22T04:14:39.778Z,10.90
2022-10-22T04:19:44.140Z,11.00
2022-10-22T04:24:47.167Z,11.00
2022-10-22T04:29:50.183Z,11.00
2022-10-22T04:34:54.500Z,11.10
2022-10-22T04:39:58.301Z,11.10
2022-10-22T04:45:01.457Z,11.10
2022-10-22T04:50:06.731Z,11.10
2022-10-22T04:55:10.331Z,11.20
2022-10-22T05:00:13.715Z,11.20
2022-10-22T05:05:18.548Z,11.10
2022-10-22T05:10:21.506Z,11.00
2022-10-22T05:15:24.481Z,11.10
2022-10-22T05:20:28.841Z,11.10
2022-10-22T05:25:31.820Z,11.10
2022-10-22T05:30:34.782Z,11.10
2022-10-22T05:35:39.131Z,11.10
2022-10-22T05:40:42.261Z,11.00
2022-10-22T05:45:45.219Z,11.20
2022-10-22T05:50:50.778Z,11.30
2022-10-22T05:55:53.740Z,11.40
2022-10-22T06:01:02.124Z,11.70
2022-10-22T06:06:17.200Z,12.10
2022-10-22T06:11:21.147Z,12.20
2022-10-22T06:16:24.131Z,12.10
2022-10-22T06:21:28.893Z,11.90
2022-10-22T06:26:32.457Z,11.90
2022-10-22T06:31:36.969Z,12.00
2022-10-22T06:36:42.664Z,12.60
2022-10-22T06:41:46.039Z,12.20
2022-10-22T06:46:52.104Z,12.10
2022-10-22T06:51:56.436Z,12.10
2022-10-22T06:56:59.430Z,12.10
2022-10-22T07:02:02.541Z,12.20
2022-10-22T07:07:06.870Z,12.30
2022-10-22T07:12:09.834Z,12.20
2022-10-22T07:17:12.802Z,12.20
2022-10-22T07:22:17.183Z,12.20
2022-10-22T07:27:20.163Z,12.20
2022-10-22T07:32:23.965Z,12.20
2022-10-22T07:37:28.380Z,12.30
2022-10-22T07:42:31.344Z,12.50
2022-10-22T07:47:34.492Z,12.50
2022-10-22T07:52:39.111Z,12.30
2022-10-22T07:57:42.684Z,12.50
2022-10-22T08:02:45.717Z,12.60
2022-10-22T08:07:50.051Z,12.50
2022-10-22T08:12:53.045Z,12.50
2022-10-22T08:17:56.225Z,12.50
2022-10-22T08:23:00.578Z,12.50
2022-10-22T08:28:04.486Z,12.50
2022-10-22T08:33:07.680Z,12.60
2022-10-22T08:38:12.015Z,12.70
2022-10-22T08:43:39.098Z,12.80
2022-10-22T08:48:46.798Z,12.70
2022-10-22T08:54:06.915Z,12.80
2022-10-22T08:59:15.782Z,12.70
2022-10-22T09:04:25.159Z,12.70
2022-10-22T09:09:35.252Z,12.80
2022-10-22T09:14:38.242Z,12.90
2022-10-22T09:19:50.107Z,13.00
2022-10-22T09:25:00.408Z,13.00
2022-10-22T09:30:04.425Z,13.00
2022-10-22T09:35:12.257Z,13.00
2022-10-22T09:40:17.660Z,13.10
2022-10-22T09:45:22.521Z,13.20
2022-10-22T09:50:30.413Z,13.30
2022-10-22T09:55:34.717Z,13.30
2022-10-22T10:00:40.176Z,13.30
2022-10-22T10:05:44.093Z,13.40
2022-10-22T10:10:51.632Z,13.30
2022-10-22T10:15:59.118Z,13.30
2022-10-22T10:21:11.418Z,13.50
2022-10-22T10:26:20.536Z,13.60
2022-10-22T10:31:34.051Z,13.30
2022-10-22T10:36:45.512Z,13.50
2022-10-22T10:41:55.759Z,13.50
2022-10-22T10:47:12.446Z,13.50
2022-10-22T10:52:21.448Z,13.60
2022-10-22T10:57:39.557Z,13.50
2022-10-22T11:03:30.829Z,13.60
2022-10-22T11:08:37.731Z,13.70
2022-10-22T11:13:48.564Z,14.20
2022-10-22T11:18:56.755Z,14.80
2022-10-22T11:24:07.014Z,15.10
2022-10-22T11:29:16.355Z,15.80
2022-10-22T11:34:33.387Z,15.70
2022-10-22T11:39:43.330Z,15.60
2022-10-22T11:45:06.860Z,15.90
2022-10-22T11:50:29.127Z,15.80
2022-10-22T11:55:45.965Z,16.20
2022-10-22T12:00:51.007Z,16.80
2022-10-22T12:06:21.352Z,17.40
2022-10-22T12:11:27.128Z,16.80
2022-10-22T12:16:55.154Z,17.50
2022-10-22T12:22:03.259Z,18.00
2022-10-22T12:27:18.143Z,16.40
2022-10-22T12:32:30.207Z,16.30
2022-10-22T12:37:36.381Z,16.20
2022-10-22T12:42:40.644Z,15.80
2022-10-22T12:47:48.526Z,16.00
2022-10-22T12:52:51.622Z,16.40
2022-10-22T12:57:54.697Z,17.20
2022-10-22T13:03:01.574Z,18.10
2022-10-22T13:08:09.750Z,18.30
2022-10-22T13:13:31.682Z,17.80
2022-10-22T13:18:36.120Z,17.60
2022-10-22T13:23:39.173Z,18.00
2022-10-22T13:28:42.575Z,18.20
2022-10-22T13:33:52.387Z,17.50
2022-10-22T13:38:55.408Z,18.00
2022-10-22T13:43:58.831Z,18.60
2022-10-22T13:49:03.187Z,19.10
2022-10-22T13:54:11.920Z,19.50
2022-10-22T13:59:17.231Z,19.50
2022-10-22T14:04:23.980Z,19.50
2022-10-22T14:09:26.938Z,19.70
2022-10-22T14:14:29.851Z,18.60
2022-10-22T14:19:34.201Z,18.90
2022-10-22T14:24:37.198Z,19.00
2022-10-22T14:29:40.629Z,18.90
2022-10-22T14:34:46.796Z,18.60
2022-10-22T14:39:52.714Z,18.20
2022-10-22T14:44:55.829Z,18.60
2022-10-22T14:50:02.272Z,18.00
2022-10-22T14:55:05.924Z,18.50
2022-10-22T15:00:12.290Z,18.00
2022-10-22T15:05:17.520Z,17.90
2022-10-22T15:10:20.600Z,17.60
2022-10-22T15:15:24.575Z,18.00
2022-10-22T15:20:30.012Z,18.00
2022-10-22T15:25:33.295Z,18.00
2022-10-22T15:30:36.285Z,17.80
2022-10-22T15:35:40.581Z,17.20
2022-10-22T15:40:43.585Z,16.90
2022-10-22T15:45:57.503Z,16.90
2022-10-22T15:51:01.847Z,17.00
2022-10-22T15:56:05.321Z,16.90
2022-10-22T16:01:09.488Z,16.80
2022-10-22T16:06:13.902Z,16.60
2022-10-22T16:11:16.950Z,16.30
2022-10-22T16:16:19.895Z,16.10
2022-10-22T16:21:26.253Z,16.00
2022-10-22T16:26:29.360Z,16.20
2022-10-22T16:31:32.471Z,16.00
2022-10-22T16:36:38.288Z,15.80
2022-10-22T16:41:41.338Z,15.70
2022-10-22T16:46:44.340Z,15.50
2022-10-22T16:51:48.707Z,15.50
2022-10-22T16:56:51.673Z,14.80
2022-10-22T17:01:54.990Z,14.70
2022-10-22T17:06:59.391Z,14.70
2022-10-22T17:12:02.442Z,14.50
2022-10-22T17:17:05.601Z,14.30
2022-10-22T17:22:10.624Z,14.20
2022-10-22T17:27:15.153Z,13.50
2022-10-22T17:32:18.259Z,13.60
2022-10-22T17:37:22.736Z,13.50
2022-10-22T17:42:25.824Z,13.30
2022-10-22T17:47:28.792Z,13.50
2022-10-22T17:52:33.309Z,13.30
2022-10-22T17:57:36.255Z,12.90
2022-10-22T18:02:40.131Z,12.80
2022-10-22T18:07:44.825Z,12.60
2022-10-22T18:12:47.803Z,12.80
2022-10-22T18:17:50.862Z,12.60
2022-10-22T18:22:56.661Z,12.70
2022-10-22T18:27:59.730Z,12.30
2022-10-22T18:33:02.696Z,12.30
2022-10-22T18:38:07.035Z,12.10
2022-10-22T18:43:10.819Z,12.30
2022-10-22T18:48:15.478Z,12.30
2022-10-22T18:53:19.811Z,11.90
2022-10-22T18:58:22.830Z,11.60
2022-10-22T19:03:25.875Z,11.70
2022-10-22T19:08:30.318Z,11.90
2022-10-22T19:13:33.301Z,11.90
2022-10-22T19:18:38.522Z,11.90
2022-10-22T19:23:43.358Z,11.90
2022-10-22T19:28:46.742Z,11.70
2022-10-22T19:33:50.164Z,11.70
2022-10-22T19:38:54.854Z,11.50
2022-10-22T19:43:59.064Z,11.30
2022-10-22T19:49:03.177Z,11.10
2022-10-22T19:54:09.071Z,11.10
2022-10-22T19:59:12.486Z,11.20
2022-10-22T20:04:17.787Z,11.10
2022-10-22T20:09:22.220Z,10.90
2022-10-22T20:14:25.324Z,10.90
2022-10-22T20:19:29.318Z,10.90
2022-10-22T20:24:33.695Z,10.80
2022-10-22T20:29:36.653Z,10.50
2022-10-22T20:34:41.568Z,10.40
2022-10-22T20:39:45.902Z,10.40
2022-10-22T20:44:48.872Z,10.30
2022-10-22T20:49:51.914Z,10.30
2022-10-22T20:54:56.269Z,10.30
2022-10-22T20:59:59.425Z,10.10
2022-10-22T21:05:02.523Z,10.50
2022-10-22T21:10:07.839Z,10.30
2022-10-22T21:15:12.746Z,10.40
2022-10-22T21:20:17.128Z,10.20
2022-10-22T21:25:23.119Z,10.30
2022-10-22T21:30:26.081Z,10.30
2022-10-22T21:35:29.007Z,10.10
2022-10-22T21:40:33.412Z,9.90
2022-10-22T21:45:36.446Z,9.90
2022-10-22T21:50:40.879Z,9.90
2022-10-22T21:55:45.170Z,9.90
2022-10-22T22:00:50.898Z,10.00
2022-10-22T22:05:58.843Z,10.10
2022-10-22T22:11:05.604Z,10.10
2022-10-22T22:16:10.761Z,10.00
2022-10-22T22:21:15.669Z,10.00
2022-10-22T22:26:25.412Z,9.90
2022-10-22T22:31:32.991Z,9.90
2022-10-22T22:36:37.924Z,9.80
2022-10-22T22:41:42.857Z,9.60
2022-10-22T22:46:45.874Z,9.40
2022-10-22T22:51:50.425Z,9.40
2022-10-22T22:56:54.722Z,9.40
2022-10-22T23:01:57.690Z,9.40
2022-10-22T23:07:00.880Z,9.50
2022-10-22T23:12:05.697Z,9.50
2022-10-22T23:17:08.657Z,9.50
2022-10-22T23:22:11.614Z,9.50
2022-10-22T23:27:15.881Z,9.40
2022-10-22T23:32:18.835Z,9.50
2022-10-22T23:37:21.830Z,9.40
2022-10-22T23:42:26.261Z,9.50
2022-10-22T23:47:29.226Z,9.50
2022-10-22T23:52:32.194Z,9.50
2022-10-22T23:57:36.530Z,9.50
